page 7256 of 1004620 registered users

eBook PostsUsers

  1. 0meat33edger registered @ 2013-05-08 15:34:34, last login @ 2013-05-08 15:34:34
  2. 0flax7quilt registered @ 2013-05-08 15:34:39, last login @ 2013-05-08 15:34:39
  3. 0square1denim registered @ 2013-05-08 15:35:28, last login @ 2013-05-08 15:35:28
  4. 0denknight94 registered @ 2013-05-08 15:35:29, last login @ 2013-05-08 15:35:29
  5. 0hyena1fork registered @ 2013-05-08 15:35:52, last login @ 2013-05-08 15:35:52
  6. 0goli66520 registered @ 2013-05-08 15:36:52, last login @ 2013-05-08 15:36:52
  7. 0beef9shell registered @ 2013-05-08 15:37:16, last login @ 2013-05-08 15:37:16
  8. 0bedshop71 registered @ 2013-05-08 15:39:18, last login @ 2013-05-08 15:39:18
  9. 0leo48straw registered @ 2013-05-08 15:41:25, last login @ 2013-05-08 15:41:25
  10. 0radishrugby0 registered @ 2013-05-08 15:41:27, last login @ 2013-05-08 15:41:27
  11. 0tights78start registered @ 2013-05-08 15:41:46, last login @ 2013-05-08 15:55:31
  12. 0box6brake registered @ 2013-05-08 15:42:17, last login @ 2013-05-08 15:42:17
  13. 0drum10camel registered @ 2013-05-08 15:42:42, last login @ 2013-05-08 15:42:42
  14. 0racingque70 registered @ 2013-05-08 15:42:47, last login @ 2013-05-08 15:42:47
  15. 0Abajegree registered @ 2013-05-08 15:43:05, last login @ 2013-05-08 15:43:05
  16. 0hate23otter registered @ 2013-05-08 15:43:49, last login @ 2013-05-08 15:43:49
  17. 0jelly6bat registered @ 2013-05-08 15:44:27, last login @ 2013-05-08 15:44:27
  18. 0tauruspacket7 registered @ 2013-05-08 15:44:34, last login @ 2013-05-08 15:44:34
  19. 0nkswfy registered @ 2013-05-08 15:45:43, last login @ 2013-05-08 15:45:43
  20. 0way1cow registered @ 2013-05-08 15:46:22, last login @ 2013-05-08 15:46:22
  21. 0hair3vacuum registered @ 2013-05-08 15:48:11, last login @ 2013-05-08 15:48:11
  22. 0nightdrama55 registered @ 2013-05-08 15:48:24, last login @ 2013-05-08 15:48:24
  23. 0okraeye51 registered @ 2013-05-08 15:48:59, last login @ 2013-05-08 15:48:59
  24. 0theory7woolen registered @ 2013-05-08 15:49:23, last login @ 2013-05-08 15:49:23
  25. 0snailblouse7 registered @ 2013-05-08 15:49:45, last login @ 2013-05-08 15:49:45
  26. 0line3green registered @ 2013-05-08 15:49:56, last login @ 2013-05-08 15:49:56
  27. 0PartraloNeori registered @ 2013-05-08 15:50:17, last login @ 2013-05-08 15:50:17
  28. 0rub15denim registered @ 2013-05-08 15:50:39, last login @ 2013-05-08 15:50:39
  29. 0mindknee28 registered @ 2013-05-08 15:51:16, last login @ 2013-05-08 15:51:16
  30. 0pansynurse7 registered @ 2013-05-08 15:53:34, last login @ 2013-05-08 15:53:34
  31. 0dragon8color registered @ 2013-05-08 15:53:50, last login @ 2013-05-08 15:53:50
  32. 0toe90cry registered @ 2013-05-08 15:54:42, last login @ 2013-05-08 15:54:42
  33. 0yacht1week registered @ 2013-05-08 15:56:28, last login @ 2013-05-08 15:56:28
  34. 0taurus3bacon registered @ 2013-05-08 15:56:33, last login @ 2013-05-08 15:56:33
  35. 0bomberbreak70 registered @ 2013-05-08 15:57:47, last login @ 2013-05-08 15:57:47
  36. 0scent8gong registered @ 2013-05-08 15:58:23, last login @ 2013-05-08 15:58:23
  37. 0cycle0spy registered @ 2013-05-08 15:59:27, last login @ 2013-05-08 15:59:27
  38. 0lossmetal54 registered @ 2013-05-08 15:59:48, last login @ 2013-05-08 15:59:48
  39. 0robertengine2 registered @ 2013-05-08 15:59:50, last login @ 2013-05-08 15:59:50
  40. 0tulip11dollar registered @ 2013-05-08 16:01:12, last login @ 2013-05-08 16:01:12
  41. 0coach16tax registered @ 2013-05-08 16:03:32, last login @ 2013-05-08 16:03:32
  42. 0willow3gas registered @ 2013-05-08 16:04:55, last login @ 2013-05-08 16:04:55
  43. 0record17tail registered @ 2013-05-08 16:05:56, last login @ 2013-05-08 16:05:56
  44. 0menu9bed registered @ 2013-05-08 16:07:18, last login @ 2013-05-08 16:07:18
  45. 0pond8peony registered @ 2013-05-08 16:07:18, last login @ 2013-05-08 16:07:18
  46. 0sonswitch78 registered @ 2013-05-08 16:07:23, last login @ 2013-05-08 16:07:23
  47. 0danger3witch registered @ 2013-05-08 16:08:36, last login @ 2013-05-08 16:22:00
  48. 0kittygallon3 registered @ 2013-05-08 16:09:23, last login @ 2013-05-08 16:09:23
  49. 0cent97state registered @ 2013-05-08 16:09:33, last login @ 2013-05-08 16:09:33
  50. 0wounddelete8 registered @ 2013-05-08 16:12:04, last login @ 2013-05-08 16:12:04
  51. 0thrill0nest registered @ 2013-05-08 16:12:20, last login @ 2013-05-08 16:12:20
  52. 0witchscale0 registered @ 2013-05-08 16:12:23, last login @ 2013-05-08 16:24:14
  53. 0bill28crowd registered @ 2013-05-08 16:14:57, last login @ 2013-05-08 16:14:57
  54. 0animal2sphere registered @ 2013-05-08 16:16:27, last login @ 2013-05-08 16:16:27
  55. 0spain3sister registered @ 2013-05-08 16:16:36, last login @ 2013-05-08 16:16:36
  56. 0rub10boot registered @ 2013-05-08 16:16:40, last login @ 2013-05-08 16:16:40
  57. 0borderday12 registered @ 2013-05-08 16:17:46, last login @ 2013-05-08 16:17:46
  58. 0night05bolt registered @ 2013-05-08 16:17:51, last login @ 2013-05-08 16:17:51
  59. 0rhythmtip1 registered @ 2013-05-08 16:17:57, last login @ 2013-05-08 16:29:07
  60. 0helpfreeze04 registered @ 2013-05-08 16:18:38, last login @ 2013-05-08 16:18:38
  61. 0chief26health registered @ 2013-05-08 16:19:37, last login @ 2013-05-08 16:19:37
  62. 0frostjune4 registered @ 2013-05-08 16:21:28, last login @ 2013-05-08 16:21:28
  63. 0frame36pilot registered @ 2013-05-08 16:22:20, last login @ 2013-05-08 16:38:55
  64. 0headcherry16 registered @ 2013-05-08 16:22:24, last login @ 2013-05-08 16:22:24
  65. 0temple2rat registered @ 2013-05-08 16:22:27, last login @ 2013-05-08 16:22:27
  66. 0sheetlook4 registered @ 2013-05-08 16:22:32, last login @ 2013-05-08 16:22:32
  67. 0shoechick37 registered @ 2013-05-08 16:22:39, last login @ 2013-05-08 16:22:39
  68. 0soy65hockey registered @ 2013-05-08 16:22:43, last login @ 2013-05-08 16:22:43
  69. 0beetlecirrus9 registered @ 2013-05-08 16:23:37, last login @ 2013-05-08 16:23:37
  70. 0phonehub05 registered @ 2013-05-08 16:23:52, last login @ 2013-05-08 16:23:52
  71. 0shirtgander14 registered @ 2013-05-08 16:24:18, last login @ 2013-05-08 16:24:18
  72. 0mine70harp registered @ 2013-05-08 16:24:25, last login @ 2013-05-08 16:24:25
  73. 0rocksnow3 registered @ 2013-05-08 16:24:30, last login @ 2013-05-08 16:24:30
  74. 0park66salt registered @ 2013-05-08 16:25:30, last login @ 2013-05-08 16:50:20
  75. 0riddlelamb9 registered @ 2013-05-08 16:25:58, last login @ 2013-05-08 16:25:58
  76. 0hyena88peen registered @ 2013-05-08 16:26:33, last login @ 2013-05-08 16:26:33
  77. 0Alfons4676 registered @ 2013-05-08 16:26:38, last login @ 2013-05-08 16:26:38
  78. 0run6side registered @ 2013-05-08 16:26:52, last login @ 2013-05-08 16:26:52
  79. 0worm40latex registered @ 2013-05-08 16:27:50, last login @ 2013-05-08 16:27:50
  80. 0tietuna4 registered @ 2013-05-08 16:27:52, last login @ 2013-05-08 16:52:55
  81. 0Moalo38 registered @ 2013-05-08 16:27:59, last login @ 2013-05-08 16:27:59
  82. 0beetlebeard98 registered @ 2013-05-08 16:28:33, last login @ 2013-05-08 16:28:33
  83. 0pastorbrush9 registered @ 2013-05-08 16:28:36, last login @ 2013-05-08 16:47:53
  84. 0hawk40minute registered @ 2013-05-08 16:29:29, last login @ 2013-05-08 16:29:29
  85. 0yoke94hood registered @ 2013-05-08 16:29:32, last login @ 2013-05-08 16:29:32
  86. 0Listecict registered @ 2013-05-08 16:30:33, last login @ 2013-05-08 16:30:33
  87. 0systemside12 registered @ 2013-05-08 16:30:49, last login @ 2013-05-08 16:30:49
  88. 0callpyjama2 registered @ 2013-05-08 16:32:24, last login @ 2013-05-08 16:32:24
  89. 0faucetgrowth81 registered @ 2013-05-08 16:33:15, last login @ 2013-05-08 16:33:15
  90. 0freonbeam14 registered @ 2013-05-08 16:33:35, last login @ 2013-05-08 16:33:35
  91. 0dewronald5 registered @ 2013-05-08 16:34:02, last login @ 2013-05-08 16:53:10
  92. 0cattleyarn4 registered @ 2013-05-08 16:34:21, last login @ 2013-05-08 16:34:21
  93. 0pandamarket92 registered @ 2013-05-08 16:35:14, last login @ 2013-05-08 16:35:14
  94. 0catsupangora7 registered @ 2013-05-08 16:36:37, last login @ 2013-05-08 16:36:37
  95. 0butane44tent registered @ 2013-05-08 16:37:12, last login @ 2013-05-08 16:37:12
  96. 0yewaugust8 registered @ 2013-05-08 16:37:16, last login @ 2013-05-08 16:37:16
  97. 0beast0jump registered @ 2013-05-08 16:37:19, last login @ 2013-05-08 16:37:19
  98. 0output91fall registered @ 2013-05-08 16:38:07, last login @ 2013-05-08 16:38:07
  99. 0camp2farm registered @ 2013-05-08 16:38:22, last login @ 2013-05-08 16:38:22
  100. 0palm5wrench registered @ 2013-05-08 16:38:27, last login @ 2013-05-08 16:38:27
  101. 0rifle9congo registered @ 2013-05-08 16:38:43, last login @ 2013-05-08 16:38:43

More...

[7266] [7265] [7264] [7263] [7262] [7261] [7260] [7259] [7258] [7257] [7256] [7255] [7254] [7253] [7252] [7251] [7250] [7249] [7248] [7247] ...[1]
Back to Top